Trans Future 10 — 3FEN2 — position and weather

sailwx.info

Track history (hours):
 
Tides and Currents Weather Stations Pressure Air Temp Water Temp Dewpoint Dewpoint Depression Visibility Wind Speed Wind Dir Waves Ship Positions

Trans Future 10

Last reported at 2017-Oct-17 02:32 UTC. Time now 2017-Oct-20 16:19 UTC.
Position N 22°03' E 114°55'.

Length 166 m; draft 5.9 m.

Type: Cargo ship. MMSI: 356143000.

Date/timePositionNaut miles runAvg speedWind from/ knotsBaromVisibWave heightAir tempDewpointWater temp
2017-Oct-17 02:32N 22°03' E 114°55'016.7
2017-Oct-17 02:30N 22°03' E 114°54'1018.6
2017-Oct-17 01:59N 22°04' E 114°44'  
2017-Oct-09 08:23N 33°56' E 134°56'718.5
2017-Oct-09 08:00N 34°03' E 134°57'918.0
2017-Oct-09 07:30N 34°12' E 134°58'815.7
2017-Oct-09 07:00N 34°20' E 134°59'918.7
2017-Oct-09 06:30N 34°26' E 135°08'918.4
2017-Oct-09 06:00N 34°31' E 135°17'511.2
2017-Oct-09 05:31N 34°31' E 135°23'0 0.5
2017-Oct-09 04:58N 34°31' E 135°23'0 0.0
2017-Oct-09 04:22N 34°31' E 135°23'0 0.0
2017-Oct-09 03:58N 34°31' E 135°23'0 0.0
2017-Oct-09 03:28N 34°31' E 135°23'0 0.0
2017-Oct-09 02:58N 34°31' E 135°23'0 0.0
2017-Oct-09 02:28N 34°31' E 135°23'0 0.0
2017-Oct-09 01:52N 34°31' E 135°23'0 0.0
2017-Oct-09 00:58N 34°31' E 135°23'0 0.0
2017-Oct-09 00:28N 34°31' E 135°23'0 0.0
2017-Oct-08 23:58N 34°31' E 135°23'0 0.0
2017-Oct-08 23:28N 34°31' E 135°23'0 0.0
2017-Oct-08 22:58N 34°31' E 135°23'0 1.0
2017-Oct-08 22:29N 34°31' E 135°23'4 8.2
2017-Oct-08 22:00N 34°33' E 135°19'611.5
2017-Oct-08 21:30N 34°30' E 135°13'714.5
2017-Oct-08 21:00N 34°25' E 135°07'918.2
2017-Oct-08 20:30N 34°18' E 134°60'815.5
2017-Oct-08 20:00N 34°11' E 135°00'510.4
2017-Oct-08 19:30N 34°05' E 135°00'916.3
2017-Oct-08 18:56N 33°56' E 134°59'  
Track history (hours):
 
Tides and Currents Weather Stations Pressure Air Temp Water Temp Dewpoint Dewpoint Depression Visibility Wind Speed Wind Dir Waves Ship Positions

Trans Future 10

Last reported at 2017-Oct-17 02:32 UTC. Time now 2017-Oct-20 16:19 UTC.
Position N 22°03' E 114°55'.

Length 166 m; draft 5.9 m.

Type: Cargo ship. MMSI: 356143000.

Date/timePositionNaut miles runAvg speedWind from/ knotsBaromVisibWave heightAir tempDewpointWater temp
2017-Oct-17 02:32N 22°03' E 114°55'016.7
2017-Oct-17 02:30N 22°03' E 114°54'1018.6
2017-Oct-17 01:59N 22°04' E 114°44'  
2017-Oct-09 08:23N 33°56' E 134°56'718.5
2017-Oct-09 08:00N 34°03' E 134°57'918.0
2017-Oct-09 07:30N 34°12' E 134°58'815.7
2017-Oct-09 07:00N 34°20' E 134°59'918.7
2017-Oct-09 06:30N 34°26' E 135°08'918.4
2017-Oct-09 06:00N 34°31' E 135°17'511.2
2017-Oct-09 05:31N 34°31' E 135°23'0 0.5
2017-Oct-09 04:58N 34°31' E 135°23'0 0.0
2017-Oct-09 04:22N 34°31' E 135°23'0 0.0
2017-Oct-09 03:58N 34°31' E 135°23'0 0.0
2017-Oct-09 03:28N 34°31' E 135°23'0 0.0
2017-Oct-09 02:58N 34°31' E 135°23'0 0.0
2017-Oct-09 02:28N 34°31' E 135°23'0 0.0
2017-Oct-09 01:52N 34°31' E 135°23'0 0.0
2017-Oct-09 00:58N 34°31' E 135°23'0 0.0
2017-Oct-09 00:28N 34°31' E 135°23'0 0.0
2017-Oct-08 23:58N 34°31' E 135°23'0 0.0
2017-Oct-08 23:28N 34°31' E 135°23'0 0.0
2017-Oct-08 22:58N 34°31' E 135°23'0 1.0
2017-Oct-08 22:29N 34°31' E 135°23'4 8.2
2017-Oct-08 22:00N 34°33' E 135°19'611.5
2017-Oct-08 21:30N 34°30' E 135°13'714.5
2017-Oct-08 21:00N 34°25' E 135°07'918.2
2017-Oct-08 20:30N 34°18' E 134°60'815.5
2017-Oct-08 20:00N 34°11' E 135°00'510.4
2017-Oct-08 19:30N 34°05' E 135°00'916.3
2017-Oct-08 18:56N 33°56' E 134°59'  

Dump ship's entire track history